sensor_id;sensor_type;location;lat;lon;timestamp;P1;durP1;ratioP1;P2;durP2;ratioP2
16310;SDS011;8264;48.510;8.872;2023-04-03T00:02:12;4.47;;;3.23;;
16310;SDS011;8264;48.510;8.872;2023-04-03T00:04:38;5.60;;;3.47;;
16310;SDS011;8264;48.510;8.872;2023-04-03T00:07:04;3.37;;;3.07;;
16310;SDS011;8264;48.510;8.872;2023-04-03T00:09:31;5.80;;;3.47;;
16310;SDS011;8264;48.510;8.872;2023-04-03T00:11:57;4.03;;;3.23;;
16310;SDS011;8264;48.510;8.872;2023-04-03T00:14:24;3.70;;;3.27;;
16310;SDS011;8264;48.510;8.872;2023-04-03T00:16:50;4.13;;;3.40;;
16310;SDS011;8264;48.510;8.872;2023-04-03T00:19:18;4.10;;;3.40;;
16310;SDS011;8264;48.510;8.872;2023-04-03T00:21:45;3.90;;;3.50;;
16310;SDS011;8264;48.510;8.872;2023-04-03T00:24:11;7.60;;;3.10;;
16310;SDS011;8264;48.510;8.872;2023-04-03T00:26:38;4.00;;;2.97;;
16310;SDS011;8264;48.510;8.872;2023-04-03T00:29:04;4.93;;;3.53;;
16310;SDS011;8264;48.510;8.872;2023-04-03T00:31:31;5.17;;;3.93;;
16310;SDS011;8264;48.510;8.872;2023-04-03T00:33:57;5.77;;;3.20;;
16310;SDS011;8264;48.510;8.872;2023-04-03T00:36:25;5.07;;;3.80;;
16310;SDS011;8264;48.510;8.872;2023-04-03T00:38:52;3.70;;;2.77;;
16310;SDS011;8264;48.510;8.872;2023-04-03T00:41:18;4.50;;;3.60;;
16310;SDS011;8264;48.510;8.872;2023-04-03T00:43:45;4.00;;;3.20;;
16310;SDS011;8264;48.510;8.872;2023-04-03T00:46:11;5.10;;;3.57;;
16310;SDS011;8264;48.510;8.872;2023-04-03T00:48:38;4.80;;;3.50;;
16310;SDS011;8264;48.510;8.872;2023-04-03T00:51:07;5.87;;;3.60;;
16310;SDS011;8264;48.510;8.872;2023-04-03T00:53:38;5.53;;;3.40;;
16310;SDS011;8264;48.510;8.872;2023-04-03T00:56:08;4.40;;;3.47;;
16310;SDS011;8264;48.510;8.872;2023-04-03T00:58:37;3.47;;;3.00;;
16310;SDS011;8264;48.510;8.872;2023-04-03T01:01:06;4.87;;;3.37;;
16310;SDS011;8264;48.510;8.872;2023-04-03T01:03:34;4.03;;;3.30;;
16310;SDS011;8264;48.510;8.872;2023-04-03T01:06:01;5.23;;;4.03;;
16310;SDS011;8264;48.510;8.872;2023-04-03T01:08:28;6.40;;;3.30;;
16310;SDS011;8264;48.510;8.872;2023-04-03T01:10:56;6.53;;;3.43;;
16310;SDS011;8264;48.510;8.872;2023-04-03T01:13:24;5.33;;;3.30;;
16310;SDS011;8264;48.510;8.872;2023-04-03T01:15:52;5.53;;;3.70;;
16310;SDS011;8264;48.510;8.872;2023-04-03T01:18:19;3.40;;;3.10;;
16310;SDS011;8264;48.510;8.872;2023-04-03T01:23:43;3.97;;;3.30;;
16310;SDS011;8264;48.510;8.872;2023-04-03T01:26:18;5.87;;;3.33;;
16310;SDS011;8264;48.510;8.872;2023-04-03T01:28:45;3.90;;;3.23;;
16310;SDS011;8264;48.510;8.872;2023-04-03T01:31:13;6.30;;;2.90;;
16310;SDS011;8264;48.510;8.872;2023-04-03T01:33:45;4.97;;;3.03;;
16310;SDS011;8264;48.510;8.872;2023-04-03T01:36:13;5.33;;;3.13;;
16310;SDS011;8264;48.510;8.872;2023-04-03T01:38:43;4.80;;;3.50;;
16310;SDS011;8264;48.510;8.872;2023-04-03T01:41:10;4.67;;;3.60;;
16310;SDS011;8264;48.510;8.872;2023-04-03T01:43:36;4.63;;;3.63;;
16310;SDS011;8264;48.510;8.872;2023-04-03T01:46:03;5.50;;;3.27;;
16310;SDS011;8264;48.510;8.872;2023-04-03T01:48:29;3.63;;;2.97;;
16310;SDS011;8264;48.510;8.872;2023-04-03T01:50:57;5.00;;;3.27;;
16310;SDS011;8264;48.510;8.872;2023-04-03T01:53:24;3.43;;;3.00;;
16310;SDS011;8264;48.510;8.872;2023-04-03T01:55:50;3.83;;;3.23;;
16310;SDS011;8264;48.510;8.872;2023-04-03T01:58:17;4.30;;;3.57;;
16310;SDS011;8264;48.510;8.872;2023-04-03T02:00:43;5.63;;;3.47;;
16310;SDS011;8264;48.510;8.872;2023-04-03T02:03:10;3.83;;;3.03;;
16310;SDS011;8264;48.510;8.872;2023-04-03T02:05:37;4.87;;;3.17;;
16310;SDS011;8264;48.510;8.872;2023-04-03T02:08:05;4.70;;;3.23;;
16310;SDS011;8264;48.510;8.872;2023-04-03T02:10:31;4.87;;;3.37;;
16310;SDS011;8264;48.510;8.872;2023-04-03T02:12:58;4.27;;;3.07;;
16310;SDS011;8264;48.510;8.872;2023-04-03T02:15:24;5.13;;;3.20;;
16310;SDS011;8264;48.510;8.872;2023-04-03T02:17:51;3.80;;;3.13;;
16310;SDS011;8264;48.510;8.872;2023-04-03T02:20:18;3.43;;;2.90;;
16310;SDS011;8264;48.510;8.872;2023-04-03T02:22:45;5.30;;;3.57;;
16310;SDS011;8264;48.510;8.872;2023-04-03T02:25:13;3.60;;;2.97;;
16310;SDS011;8264;48.510;8.872;2023-04-03T02:27:39;5.53;;;3.43;;
16310;SDS011;8264;48.510;8.872;2023-04-03T02:30:06;3.67;;;3.33;;
16310;SDS011;8264;48.510;8.872;2023-04-03T02:32:35;4.73;;;3.73;;
16310;SDS011;8264;48.510;8.872;2023-04-03T02:35:02;4.97;;;3.13;;
16310;SDS011;8264;48.510;8.872;2023-04-03T02:37:29;4.20;;;2.83;;
16310;SDS011;8264;48.510;8.872;2023-04-03T02:39:56;3.97;;;3.00;;
16310;SDS011;8264;48.510;8.872;2023-04-03T02:42:24;4.87;;;2.90;;
16310;SDS011;8264;48.510;8.872;2023-04-03T02:44:50;4.57;;;3.00;;
16310;SDS011;8264;48.510;8.872;2023-04-03T02:47:17;4.17;;;3.13;;
16310;SDS011;8264;48.510;8.872;2023-04-03T02:49:43;4.33;;;3.20;;
16310;SDS011;8264;48.510;8.872;2023-04-03T02:52:10;3.27;;;2.80;;
16310;SDS011;8264;48.510;8.872;2023-04-03T02:54:37;5.50;;;3.70;;
16310;SDS011;8264;48.510;8.872;2023-04-03T02:57:03;3.00;;;2.63;;
16310;SDS011;8264;48.510;8.872;2023-04-03T02:59:32;5.30;;;3.23;;
16310;SDS011;8264;48.510;8.872;2023-04-03T03:01:58;4.90;;;3.13;;
16310;SDS011;8264;48.510;8.872;2023-04-03T03:04:25;4.67;;;3.00;;
16310;SDS011;8264;48.510;8.872;2023-04-03T03:06:51;5.33;;;3.07;;
16310;SDS011;8264;48.510;8.872;2023-04-03T03:09:17;3.73;;;2.67;;
16310;SDS011;8264;48.510;8.872;2023-04-03T03:11:44;6.57;;;3.37;;
16310;SDS011;8264;48.510;8.872;2023-04-03T03:14:11;3.87;;;2.90;;
16310;SDS011;8264;48.510;8.872;2023-04-03T03:16:38;4.17;;;3.17;;
16310;SDS011;8264;48.510;8.872;2023-04-03T03:19:05;4.93;;;3.60;;
16310;SDS011;8264;48.510;8.872;2023-04-03T03:21:32;4.43;;;3.40;;
16310;SDS011;8264;48.510;8.872;2023-04-03T03:23:58;4.63;;;3.37;;
16310;SDS011;8264;48.510;8.872;2023-04-03T03:26:25;4.27;;;2.73;;
16310;SDS011;8264;48.510;8.872;2023-04-03T03:28:51;3.30;;;3.00;;
16310;SDS011;8264;48.510;8.872;2023-04-03T03:31:17;2.90;;;2.60;;
16310;SDS011;8264;48.510;8.872;2023-04-03T03:33:45;3.93;;;3.20;;
16310;SDS011;8264;48.510;8.872;2023-04-03T03:36:12;6.47;;;3.20;;
16310;SDS011;8264;48.510;8.872;2023-04-03T03:38:38;3.87;;;3.10;;
16310;SDS011;8264;48.510;8.872;2023-04-03T03:41:05;4.13;;;3.10;;
16310;SDS011;8264;48.510;8.872;2023-04-03T03:43:32;3.73;;;2.87;;
16310;SDS011;8264;48.510;8.872;2023-04-03T03:45:58;4.67;;;3.10;;
16310;SDS011;8264;48.510;8.872;2023-04-03T03:48:25;2.90;;;2.63;;
16310;SDS011;8264;48.510;8.872;2023-04-03T03:50:52;3.73;;;2.90;;
16310;SDS011;8264;48.510;8.872;2023-04-03T03:53:19;4.93;;;3.13;;
16310;SDS011;8264;48.510;8.872;2023-04-03T03:55:45;3.97;;;2.83;;
16310;SDS011;8264;48.510;8.872;2023-04-03T03:58:12;3.90;;;2.67;;
16310;SDS011;8264;48.510;8.872;2023-04-03T04:00:38;4.73;;;3.20;;
16310;SDS011;8264;48.510;8.872;2023-04-03T04:03:05;4.73;;;2.70;;
16310;SDS011;8264;48.510;8.872;2023-04-03T04:05:31;3.93;;;3.00;;
16310;SDS011;8264;48.510;8.872;2023-04-03T04:07:59;4.07;;;3.57;;
16310;SDS011;8264;48.510;8.872;2023-04-03T04:10:26;3.60;;;2.93;;
16310;SDS011;8264;48.510;8.872;2023-04-03T04:12:52;3.60;;;2.90;;
16310;SDS011;8264;48.510;8.872;2023-04-03T04:15:19;6.20;;;3.33;;
16310;SDS011;8264;48.510;8.872;2023-04-03T04:17:46;4.60;;;2.90;;
16310;SDS011;8264;48.510;8.872;2023-04-03T04:20:13;4.83;;;3.00;;
16310;SDS011;8264;48.510;8.872;2023-04-03T04:22:40;3.73;;;2.97;;
16310;SDS011;8264;48.510;8.872;2023-04-03T04:25:08;3.80;;;2.70;;
16310;SDS011;8264;48.510;8.872;2023-04-03T04:27:34;3.70;;;2.77;;
16310;SDS011;8264;48.510;8.872;2023-04-03T04:30:02;3.40;;;2.93;;
16310;SDS011;8264;48.510;8.872;2023-04-03T04:32:29;5.10;;;3.13;;
16310;SDS011;8264;48.510;8.872;2023-04-03T04:34:55;4.77;;;3.10;;
16310;SDS011;8264;48.510;8.872;2023-04-03T04:37:22;4.87;;;2.90;;
16310;SDS011;8264;48.510;8.872;2023-04-03T04:39:48;3.40;;;2.90;;
16310;SDS011;8264;48.510;8.872;2023-04-03T04:42:16;6.30;;;3.40;;
16310;SDS011;8264;48.510;8.872;2023-04-03T04:44:43;4.43;;;2.97;;
16310;SDS011;8264;48.510;8.872;2023-04-03T04:47:09;3.63;;;2.73;;
16310;SDS011;8264;48.510;8.872;2023-04-03T04:49:36;3.40;;;2.90;;
16310;SDS011;8264;48.510;8.872;2023-04-03T04:52:02;4.53;;;3.07;;
16310;SDS011;8264;48.510;8.872;2023-04-03T04:54:29;3.40;;;2.70;;
16310;SDS011;8264;48.510;8.872;2023-04-03T04:56:55;6.60;;;3.40;;
16310;SDS011;8264;48.510;8.872;2023-04-03T04:59:23;4.23;;;2.70;;
16310;SDS011;8264;48.510;8.872;2023-04-03T05:01:50;3.80;;;2.57;;
16310;SDS011;8264;48.510;8.872;2023-04-03T05:04:16;3.53;;;2.80;;
16310;SDS011;8264;48.510;8.872;2023-04-03T05:06:43;4.90;;;2.70;;
16310;SDS011;8264;48.510;8.872;2023-04-03T05:09:09;3.53;;;3.03;;
16310;SDS011;8264;48.510;8.872;2023-04-03T05:11:36;4.53;;;3.03;;
16310;SDS011;8264;48.510;8.872;2023-04-03T05:14:02;3.43;;;2.40;;
16310;SDS011;8264;48.510;8.872;2023-04-03T05:16:32;3.13;;;2.70;;
16310;SDS011;8264;48.510;8.872;2023-04-03T05:18:59;3.57;;;2.80;;
16310;SDS011;8264;48.510;8.872;2023-04-03T05:21:26;4.17;;;2.80;;
16310;SDS011;8264;48.510;8.872;2023-04-03T05:23:56;2.57;;;2.37;;
16310;SDS011;8264;48.510;8.872;2023-04-03T05:26:23;4.50;;;2.80;;
16310;SDS011;8264;48.510;8.872;2023-04-03T05:28:50;3.97;;;2.70;;
16310;SDS011;8264;48.510;8.872;2023-04-03T05:31:17;4.30;;;2.87;;
16310;SDS011;8264;48.510;8.872;2023-04-03T05:33:44;6.20;;;2.70;;
16310;SDS011;8264;48.510;8.872;2023-04-03T05:36:12;5.50;;;2.77;;
16310;SDS011;8264;48.510;8.872;2023-04-03T05:38:38;6.80;;;4.07;;
16310;SDS011;8264;48.510;8.872;2023-04-03T05:41:05;5.10;;;3.77;;
16310;SDS011;8264;48.510;8.872;2023-04-03T05:43:32;7.57;;;5.30;;
16310;SDS011;8264;48.510;8.872;2023-04-03T05:45:59;6.67;;;3.40;;
16310;SDS011;8264;48.510;8.872;2023-04-03T05:48:26;3.00;;;2.70;;
16310;SDS011;8264;48.510;8.872;2023-04-03T05:50:53;4.37;;;2.67;;
16310;SDS011;8264;48.510;8.872;2023-04-03T05:53:21;3.80;;;2.60;;
16310;SDS011;8264;48.510;8.872;2023-04-03T05:55:48;2.53;;;2.30;;
16310;SDS011;8264;48.510;8.872;2023-04-03T05:58:14;3.17;;;2.47;;
16310;SDS011;8264;48.510;8.872;2023-04-03T06:00:41;4.67;;;2.63;;
16310;SDS011;8264;48.510;8.872;2023-04-03T06:03:07;3.17;;;2.27;;
16310;SDS011;8264;48.510;8.872;2023-04-03T06:05:34;4.90;;;2.30;;
16310;SDS011;8264;48.510;8.872;2023-04-03T06:08:02;3.70;;;2.13;;
16310;SDS011;8264;48.510;8.872;2023-04-03T06:10:29;3.50;;;2.00;;
16310;SDS011;8264;48.510;8.872;2023-04-03T06:12:56;3.67;;;2.10;;
16310;SDS011;8264;48.510;8.872;2023-04-03T06:15:22;3.20;;;2.50;;
16310;SDS011;8264;48.510;8.872;2023-04-03T06:17:49;2.73;;;2.27;;
16310;SDS011;8264;48.510;8.872;2023-04-03T06:20:16;3.10;;;2.30;;
16310;SDS011;8264;48.510;8.872;2023-04-03T06:22:42;2.83;;;2.40;;
16310;SDS011;8264;48.510;8.872;2023-04-03T06:25:10;4.53;;;2.23;;
16310;SDS011;8264;48.510;8.872;2023-04-03T06:27:37;3.23;;;2.37;;
16310;SDS011;8264;48.510;8.872;2023-04-03T06:30:04;5.80;;;3.23;;
16310;SDS011;8264;48.510;8.872;2023-04-03T06:32:31;3.17;;;1.87;;
16310;SDS011;8264;48.510;8.872;2023-04-03T06:34:58;3.13;;;2.10;;
16310;SDS011;8264;48.510;8.872;2023-04-03T06:37:25;2.40;;;1.77;;
16310;SDS011;8264;48.510;8.872;2023-04-03T06:39:53;3.07;;;1.90;;
16310;SDS011;8264;48.510;8.872;2023-04-03T06:42:21;2.23;;;1.63;;
16310;SDS011;8264;48.510;8.872;2023-04-03T06:44:48;2.23;;;2.00;;
16310;SDS011;8264;48.510;8.872;2023-04-03T06:47:15;4.60;;;1.60;;
16310;SDS011;8264;48.510;8.872;2023-04-03T06:49:42;1.87;;;1.53;;
16310;SDS011;8264;48.510;8.872;2023-04-03T06:52:09;1.90;;;1.70;;
16310;SDS011;8264;48.510;8.872;2023-04-03T06:54:37;2.33;;;2.00;;
16310;SDS011;8264;48.510;8.872;2023-04-03T06:57:04;2.47;;;1.60;;
16310;SDS011;8264;48.510;8.872;2023-04-03T06:59:32;3.00;;;1.83;;
16310;SDS011;8264;48.510;8.872;2023-04-03T07:01:58;3.57;;;1.67;;
16310;SDS011;8264;48.510;8.872;2023-04-03T07:04:25;2.07;;;1.83;;
16310;SDS011;8264;48.510;8.872;2023-04-03T07:06:52;1.83;;;1.73;;
16310;SDS011;8264;48.510;8.872;2023-04-03T07:09:18;2.37;;;1.70;;
16310;SDS011;8264;48.510;8.872;2023-04-03T07:11:45;3.50;;;2.10;;
16310;SDS011;8264;48.510;8.872;2023-04-03T07:14:11;3.13;;;2.07;;
16310;SDS011;8264;48.510;8.872;2023-04-03T07:16:39;5.33;;;2.60;;
16310;SDS011;8264;48.510;8.872;2023-04-03T07:19:05;3.73;;;2.30;;
16310;SDS011;8264;48.510;8.872;2023-04-03T07:21:33;2.70;;;2.00;;
16310;SDS011;8264;48.510;8.872;2023-04-03T07:24:00;2.80;;;2.10;;
16310;SDS011;8264;48.510;8.872;2023-04-03T07:26:26;2.50;;;1.67;;
16310;SDS011;8264;48.510;8.872;2023-04-03T07:28:53;2.13;;;1.67;;
16310;SDS011;8264;48.510;8.872;2023-04-03T07:31:20;2.13;;;1.57;;
16310;SDS011;8264;48.510;8.872;2023-04-03T07:33:47;3.30;;;2.20;;
16310;SDS011;8264;48.510;8.872;2023-04-03T07:36:15;3.37;;;1.93;;
16310;SDS011;8264;48.510;8.872;2023-04-03T07:38:43;3.73;;;1.80;;
16310;SDS011;8264;48.510;8.872;2023-04-03T07:41:11;2.93;;;1.73;;
16310;SDS011;8264;48.510;8.872;2023-04-03T07:43:38;3.30;;;1.77;;
16310;SDS011;8264;48.510;8.872;2023-04-03T07:46:05;3.23;;;1.73;;
16310;SDS011;8264;48.510;8.872;2023-04-03T07:48:32;2.37;;;1.63;;
16310;SDS011;8264;48.510;8.872;2023-04-03T07:51:01;2.30;;;1.63;;
16310;SDS011;8264;48.510;8.872;2023-04-03T07:53:29;2.20;;;1.63;;
16310;SDS011;8264;48.510;8.872;2023-04-03T07:55:56;3.27;;;1.90;;
16310;SDS011;8264;48.510;8.872;2023-04-03T07:58:22;1.97;;;1.50;;
16310;SDS011;8264;48.510;8.872;2023-04-03T08:00:49;3.73;;;2.00;;
16310;SDS011;8264;48.510;8.872;2023-04-03T08:03:15;3.17;;;1.60;;
16310;SDS011;8264;48.510;8.872;2023-04-03T08:05:43;2.00;;;1.70;;
16310;SDS011;8264;48.510;8.872;2023-04-03T08:08:13;2.57;;;1.77;;
16310;SDS011;8264;48.510;8.872;2023-04-03T08:10:40;2.20;;;1.50;;
16310;SDS011;8264;48.510;8.872;2023-04-03T08:13:08;4.33;;;1.90;;
16310;SDS011;8264;48.510;8.872;2023-04-03T08:15:35;3.90;;;1.73;;
16310;SDS011;8264;48.510;8.872;2023-04-03T08:18:02;1.80;;;1.20;;
16310;SDS011;8264;48.510;8.872;2023-04-03T08:20:29;2.90;;;1.73;;
16310;SDS011;8264;48.510;8.872;2023-04-03T08:22:55;3.00;;;1.80;;
16310;SDS011;8264;48.510;8.872;2023-04-03T08:25:23;3.00;;;1.40;;
16310;SDS011;8264;48.510;8.872;2023-04-03T08:27:50;2.60;;;1.53;;
16310;SDS011;8264;48.510;8.872;2023-04-03T08:30:16;2.20;;;1.50;;
16310;SDS011;8264;48.510;8.872;2023-04-03T08:32:43;1.87;;;1.63;;
16310;SDS011;8264;48.510;8.872;2023-04-03T08:35:09;2.47;;;1.43;;
16310;SDS011;8264;48.510;8.872;2023-04-03T08:37:37;1.70;;;1.50;;
16310;SDS011;8264;48.510;8.872;2023-04-03T08:40:04;3.53;;;1.30;;
16310;SDS011;8264;48.510;8.872;2023-04-03T08:42:38;2.50;;;1.30;;
16310;SDS011;8264;48.510;8.872;2023-04-03T08:45:10;2.17;;;1.67;;
16310;SDS011;8264;48.510;8.872;2023-04-03T08:47:38;2.63;;;1.30;;
16310;SDS011;8264;48.510;8.872;2023-04-03T08:50:11;2.07;;;1.50;;
16310;SDS011;8264;48.510;8.872;2023-04-03T08:52:39;1.97;;;1.50;;
16310;SDS011;8264;48.510;8.872;2023-04-03T08:55:13;2.63;;;1.60;;
16310;SDS011;8264;48.510;8.872;2023-04-03T08:57:45;1.77;;;1.50;;
16310;SDS011;8264;48.510;8.872;2023-04-03T09:00:16;2.80;;;1.50;;
16310;SDS011;8264;48.510;8.872;2023-04-03T09:02:44;2.20;;;1.60;;
16310;SDS011;8264;48.510;8.872;2023-04-03T09:05:14;1.70;;;1.53;;
16310;SDS011;8264;48.510;8.872;2023-04-03T09:07:42;3.83;;;2.10;;
16310;SDS011;8264;48.510;8.872;2023-04-03T09:10:10;2.13;;;1.93;;
16310;SDS011;8264;48.510;8.872;2023-04-03T09:12:39;1.90;;;1.40;;
16310;SDS011;8264;48.510;8.872;2023-04-03T09:15:12;1.73;;;1.43;;
16310;SDS011;8264;48.510;8.872;2023-04-03T09:17:46;1.63;;;1.53;;
16310;SDS011;8264;48.510;8.872;2023-04-03T09:20:21;1.60;;;1.50;;
16310;SDS011;8264;48.510;8.872;2023-04-03T09:22:51;2.63;;;1.80;;
16310;SDS011;8264;48.510;8.872;2023-04-03T09:25:20;1.57;;;1.30;;
16310;SDS011;8264;48.510;8.872;2023-04-03T09:27:48;4.07;;;1.50;;
16310;SDS011;8264;48.510;8.872;2023-04-03T09:30:17;2.90;;;1.60;;
16310;SDS011;8264;48.510;8.872;2023-04-03T09:32:45;3.43;;;1.90;;
16310;SDS011;8264;48.510;8.872;2023-04-03T09:35:17;2.87;;;1.73;;
16310;SDS011;8264;48.510;8.872;2023-04-03T09:37:46;2.23;;;1.63;;
16310;SDS011;8264;48.510;8.872;2023-04-03T09:40:30;4.00;;;2.33;;
16310;SDS011;8264;48.510;8.872;2023-04-03T09:43:00;2.63;;;1.40;;
16310;SDS011;8264;48.510;8.872;2023-04-03T09:45:29;4.20;;;1.60;;
16310;SDS011;8264;48.510;8.872;2023-04-03T09:48:04;1.73;;;1.57;;
16310;SDS011;8264;48.510;8.872;2023-04-03T09:50:34;2.10;;;1.30;;
16310;SDS011;8264;48.510;8.872;2023-04-03T09:53:04;2.53;;;1.60;;
16310;SDS011;8264;48.510;8.872;2023-04-03T09:55:32;2.10;;;1.57;;
16310;SDS011;8264;48.510;8.872;2023-04-03T09:57:59;3.03;;;1.60;;
16310;SDS011;8264;48.510;8.872;2023-04-03T10:00:27;2.37;;;1.63;;
16310;SDS011;8264;48.510;8.872;2023-04-03T10:02:57;3.67;;;1.80;;
16310;SDS011;8264;48.510;8.872;2023-04-03T10:05:26;2.57;;;1.70;;
16310;SDS011;8264;48.510;8.872;2023-04-03T10:08:06;2.10;;;1.60;;
16310;SDS011;8264;48.510;8.872;2023-04-03T10:10:34;2.60;;;1.70;;
16310;SDS011;8264;48.510;8.872;2023-04-03T10:13:04;3.60;;;1.80;;
16310;SDS011;8264;48.510;8.872;2023-04-03T10:15:36;2.13;;;1.70;;
16310;SDS011;8264;48.510;8.872;2023-04-03T10:18:07;3.33;;;1.83;;
16310;SDS011;8264;48.510;8.872;2023-04-03T10:20:47;1.83;;;1.47;;
16310;SDS011;8264;48.510;8.872;2023-04-03T10:23:15;2.97;;;1.73;;
16310;SDS011;8264;48.510;8.872;2023-04-03T10:25:47;3.57;;;2.00;;
16310;SDS011;8264;48.510;8.872;2023-04-03T10:28:23;2.17;;;1.60;;
16310;SDS011;8264;48.510;8.872;2023-04-03T10:30:54;2.33;;;1.70;;
16310;SDS011;8264;48.510;8.872;2023-04-03T10:33:31;3.03;;;1.93;;
16310;SDS011;8264;48.510;8.872;2023-04-03T10:36:18;2.30;;;1.47;;
16310;SDS011;8264;48.510;8.872;2023-04-03T10:38:51;3.33;;;1.80;;
16310;SDS011;8264;48.510;8.872;2023-04-03T10:41:23;4.57;;;2.10;;
16310;SDS011;8264;48.510;8.872;2023-04-03T10:43:59;3.27;;;1.70;;
16310;SDS011;8264;48.510;8.872;2023-04-03T10:46:35;2.83;;;1.50;;
16310;SDS011;8264;48.510;8.872;2023-04-03T10:49:06;1.57;;;1.37;;
16310;SDS011;8264;48.510;8.872;2023-04-03T10:51:41;2.23;;;1.63;;
16310;SDS011;8264;48.510;8.872;2023-04-03T10:54:10;2.37;;;1.60;;
16310;SDS011;8264;48.510;8.872;2023-04-03T10:56:39;1.87;;;1.43;;
16310;SDS011;8264;48.510;8.872;2023-04-03T10:59:11;2.23;;;1.60;;
16310;SDS011;8264;48.510;8.872;2023-04-03T11:01:44;2.10;;;1.60;;
16310;SDS011;8264;48.510;8.872;2023-04-03T11:04:12;3.33;;;1.57;;
16310;SDS011;8264;48.510;8.872;2023-04-03T11:06:43;1.87;;;1.43;;
16310;SDS011;8264;48.510;8.872;2023-04-03T11:09:15;2.03;;;1.83;;
16310;SDS011;8264;48.510;8.872;2023-04-03T11:11:45;2.47;;;1.70;;
16310;SDS011;8264;48.510;8.872;2023-04-03T11:14:14;2.77;;;1.53;;
16310;SDS011;8264;48.510;8.872;2023-04-03T11:16:46;2.30;;;1.43;;
16310;SDS011;8264;48.510;8.872;2023-04-03T11:19:26;1.63;;;1.30;;
16310;SDS011;8264;48.510;8.872;2023-04-03T11:22:00;1.63;;;1.50;;
16310;SDS011;8264;48.510;8.872;2023-04-03T11:24:31;1.63;;;1.27;;
16310;SDS011;8264;48.510;8.872;2023-04-03T11:26:59;1.57;;;1.47;;
16310;SDS011;8264;48.510;8.872;2023-04-03T11:29:27;3.63;;;1.70;;
16310;SDS011;8264;48.510;8.872;2023-04-03T11:32:04;5.73;;;1.80;;
16310;SDS011;8264;48.510;8.872;2023-04-03T11:34:36;3.27;;;1.40;;
16310;SDS011;8264;48.510;8.872;2023-04-03T11:37:05;2.90;;;1.53;;
16310;SDS011;8264;48.510;8.872;2023-04-03T11:39:39;1.43;;;1.23;;
16310;SDS011;8264;48.510;8.872;2023-04-03T11:42:20;1.80;;;1.40;;
16310;SDS011;8264;48.510;8.872;2023-04-03T11:44:56;3.47;;;1.70;;
16310;SDS011;8264;48.510;8.872;2023-04-03T11:47:44;2.23;;;1.80;;
16310;SDS011;8264;48.510;8.872;2023-04-03T11:53:30;2.03;;;1.20;;
16310;SDS011;8264;48.510;8.872;2023-04-03T11:56:00;4.80;;;1.30;;
16310;SDS011;8264;48.510;8.872;2023-04-03T11:58:28;2.43;;;1.30;;
16310;SDS011;8264;48.510;8.872;2023-04-03T12:00:57;2.67;;;1.30;;
16310;SDS011;8264;48.510;8.872;2023-04-03T12:06:47;2.27;;;1.43;;
16310;SDS011;8264;48.510;8.872;2023-04-03T12:09:23;2.23;;;1.40;;
16310;SDS011;8264;48.510;8.872;2023-04-03T12:11:52;1.60;;;1.37;;
16310;SDS011;8264;48.510;8.872;2023-04-03T12:14:20;3.80;;;1.60;;
16310;SDS011;8264;48.510;8.872;2023-04-03T12:16:49;3.10;;;1.60;;
16310;SDS011;8264;48.510;8.872;2023-04-03T12:19:31;3.13;;;1.40;;
16310;SDS011;8264;48.510;8.872;2023-04-03T12:22:07;4.17;;;1.80;;
16310;SDS011;8264;48.510;8.872;2023-04-03T12:24:46;3.07;;;1.70;;
16310;SDS011;8264;48.510;8.872;2023-04-03T12:27:21;2.70;;;1.70;;
16310;SDS011;8264;48.510;8.872;2023-04-03T12:29:52;3.00;;;1.70;;
16310;SDS011;8264;48.510;8.872;2023-04-03T12:32:28;6.43;;;1.73;;
16310;SDS011;8264;48.510;8.872;2023-04-03T12:35:09;14.90;;;9.90;;
16310;SDS011;8264;48.510;8.872;2023-04-03T12:37:48;2.57;;;1.80;;
16310;SDS011;8264;48.510;8.872;2023-04-03T12:40:25;3.13;;;1.57;;
16310;SDS011;8264;48.510;8.872;2023-04-03T12:45:58;2.90;;;1.40;;
16310;SDS011;8264;48.510;8.872;2023-04-03T12:48:28;3.03;;;1.40;;
16310;SDS011;8264;48.510;8.872;2023-04-03T12:50:57;2.37;;;1.50;;
16310;SDS011;8264;48.510;8.872;2023-04-03T12:53:25;2.77;;;1.20;;
16310;SDS011;8264;48.510;8.872;2023-04-03T12:55:53;2.93;;;1.50;;
16310;SDS011;8264;48.510;8.872;2023-04-03T12:58:21;1.73;;;1.40;;
16310;SDS011;8264;48.510;8.872;2023-04-03T13:00:58;4.60;;;1.50;;
16310;SDS011;8264;48.510;8.872;2023-04-03T13:03:26;3.10;;;1.50;;
16310;SDS011;8264;48.510;8.872;2023-04-03T13:05:53;2.43;;;1.70;;
16310;SDS011;8264;48.510;8.872;2023-04-03T13:08:23;1.90;;;1.57;;
16310;SDS011;8264;48.510;8.872;2023-04-03T13:10:51;2.73;;;1.50;;
16310;SDS011;8264;48.510;8.872;2023-04-03T13:13:20;2.10;;;1.47;;
16310;SDS011;8264;48.510;8.872;2023-04-03T13:15:48;3.43;;;1.47;;
16310;SDS011;8264;48.510;8.872;2023-04-03T13:18:25;3.40;;;1.40;;
16310;SDS011;8264;48.510;8.872;2023-04-03T13:20:53;2.57;;;1.47;;
16310;SDS011;8264;48.510;8.872;2023-04-03T13:23:25;2.27;;;1.40;;
16310;SDS011;8264;48.510;8.872;2023-04-03T13:25:52;2.73;;;1.30;;
16310;SDS011;8264;48.510;8.872;2023-04-03T13:28:19;2.10;;;1.50;;
16310;SDS011;8264;48.510;8.872;2023-04-03T13:30:54;2.07;;;1.60;;
16310;SDS011;8264;48.510;8.872;2023-04-03T13:33:24;1.97;;;1.50;;
16310;SDS011;8264;48.510;8.872;2023-04-03T13:35:56;2.60;;;1.33;;
16310;SDS011;8264;48.510;8.872;2023-04-03T13:38:26;2.03;;;1.50;;
16310;SDS011;8264;48.510;8.872;2023-04-03T13:40:56;2.00;;;1.40;;
16310;SDS011;8264;48.510;8.872;2023-04-03T13:43:26;1.50;;;1.20;;
16310;SDS011;8264;48.510;8.872;2023-04-03T13:45:56;2.70;;;1.60;;
16310;SDS011;8264;48.510;8.872;2023-04-03T13:48:25;2.83;;;1.40;;
16310;SDS011;8264;48.510;8.872;2023-04-03T13:50:53;3.77;;;1.80;;
16310;SDS011;8264;48.510;8.872;2023-04-03T13:53:23;4.40;;;1.87;;
16310;SDS011;8264;48.510;8.872;2023-04-03T13:55:54;1.60;;;1.23;;
16310;SDS011;8264;48.510;8.872;2023-04-03T13:58:23;2.07;;;1.60;;
16310;SDS011;8264;48.510;8.872;2023-04-03T14:00:51;2.13;;;1.40;;
16310;SDS011;8264;48.510;8.872;2023-04-03T14:03:21;2.07;;;1.47;;
16310;SDS011;8264;48.510;8.872;2023-04-03T14:05:48;5.53;;;3.10;;
16310;SDS011;8264;48.510;8.872;2023-04-03T14:08:15;2.00;;;1.40;;
16310;SDS011;8264;48.510;8.872;2023-04-03T14:10:43;2.90;;;1.30;;
16310;SDS011;8264;48.510;8.872;2023-04-03T14:13:11;1.73;;;1.43;;
16310;SDS011;8264;48.510;8.872;2023-04-03T14:15:38;2.13;;;1.40;;
16310;SDS011;8264;48.510;8.872;2023-04-03T14:18:05;1.87;;;1.37;;
16310;SDS011;8264;48.510;8.872;2023-04-03T14:20:31;3.10;;;2.53;;
16310;SDS011;8264;48.510;8.872;2023-04-03T14:22:58;3.43;;;1.63;;
16310;SDS011;8264;48.510;8.872;2023-04-03T14:25:25;7.57;;;2.00;;
16310;SDS011;8264;48.510;8.872;2023-04-03T14:27:54;11.10;;;6.20;;
16310;SDS011;8264;48.510;8.872;2023-04-03T14:30:22;6.80;;;4.67;;
16310;SDS011;8264;48.510;8.872;2023-04-03T14:32:51;2.37;;;1.50;;
16310;SDS011;8264;48.510;8.872;2023-04-03T14:35:18;1.50;;;1.20;;
16310;SDS011;8264;48.510;8.872;2023-04-03T14:37:46;1.63;;;1.30;;
16310;SDS011;8264;48.510;8.872;2023-04-03T14:40:13;2.20;;;1.50;;
16310;SDS011;8264;48.510;8.872;2023-04-03T14:42:41;1.77;;;1.27;;
16310;SDS011;8264;48.510;8.872;2023-04-03T14:45:11;2.97;;;1.73;;
16310;SDS011;8264;48.510;8.872;2023-04-03T14:47:39;2.63;;;1.40;;
16310;SDS011;8264;48.510;8.872;2023-04-03T14:50:11;4.93;;;1.70;;
16310;SDS011;8264;48.510;8.872;2023-04-03T14:52:39;2.60;;;1.70;;
16310;SDS011;8264;48.510;8.872;2023-04-03T14:55:06;3.47;;;1.77;;
16310;SDS011;8264;48.510;8.872;2023-04-03T14:57:33;1.90;;;1.40;;
16310;SDS011;8264;48.510;8.872;2023-04-03T15:00:00;2.63;;;1.40;;
16310;SDS011;8264;48.510;8.872;2023-04-03T15:02:30;2.50;;;1.50;;
16310;SDS011;8264;48.510;8.872;2023-04-03T15:04:57;2.80;;;1.40;;
16310;SDS011;8264;48.510;8.872;2023-04-03T15:07:25;3.93;;;1.50;;
16310;SDS011;8264;48.510;8.872;2023-04-03T15:09:53;1.80;;;1.40;;
16310;SDS011;8264;48.510;8.872;2023-04-03T15:12:21;6.87;;;3.90;;
16310;SDS011;8264;48.510;8.872;2023-04-03T15:14:48;2.87;;;1.77;;
16310;SDS011;8264;48.510;8.872;2023-04-03T15:17:15;2.23;;;1.47;;
16310;SDS011;8264;48.510;8.872;2023-04-03T15:19:44;2.77;;;1.70;;
16310;SDS011;8264;48.510;8.872;2023-04-03T15:22:13;2.17;;;1.53;;